sensor_id;sensor_type;location;lat;lon;timestamp;pressure;altitude;pressure_sealevel;temperature;humidity
37892;BME280;45797;47.466;9.486;2023-02-28T00:01:28;96047.19;;;3.55;60.09
37892;BME280;45797;47.466;9.486;2023-02-28T00:06:31;96049.91;;;3.52;60.03
37892;BME280;45797;47.466;9.486;2023-02-28T00:11:33;96044.75;;;3.50;59.73
37892;BME280;45797;47.466;9.486;2023-02-28T00:16:36;96053.50;;;3.48;59.95
37892;BME280;45797;47.466;9.486;2023-02-28T00:21:37;96052.19;;;3.37;60.26
37892;BME280;45797;47.466;9.486;2023-02-28T00:26:42;96054.78;;;3.37;60.21
37892;BME280;45797;47.466;9.486;2023-02-28T00:31:44;96043.03;;;3.29;60.80
37892;BME280;45797;47.466;9.486;2023-02-28T00:36:45;96047.38;;;3.28;60.23
37892;BME280;45797;47.466;9.486;2023-02-28T00:41:51;96039.47;;;3.31;60.45
37892;BME280;45797;47.466;9.486;2023-02-28T00:46:52;96038.63;;;3.31;60.44
37892;BME280;45797;47.466;9.486;2023-02-28T00:52:09;96034.38;;;3.30;60.03
37892;BME280;45797;47.466;9.486;2023-02-28T00:57:15;96040.28;;;3.33;60.30
37892;BME280;45797;47.466;9.486;2023-02-28T01:02:32;96037.69;;;3.33;59.83
37892;BME280;45797;47.466;9.486;2023-02-28T01:07:32;96042.88;;;3.33;60.19
37892;BME280;45797;47.466;9.486;2023-02-28T01:12:38;96041.84;;;3.37;59.68
37892;BME280;45797;47.466;9.486;2023-02-28T01:17:38;96049.53;;;3.39;60.08
37892;BME280;45797;47.466;9.486;2023-02-28T01:22:42;96040.03;;;3.39;60.04
37892;BME280;45797;47.466;9.486;2023-02-28T01:27:51;96044.66;;;3.31;60.38
37892;BME280;45797;47.466;9.486;2023-02-28T01:32:55;96046.41;;;3.31;60.63
37892;BME280;45797;47.466;9.486;2023-02-28T01:37:56;96043.66;;;3.35;60.07
37892;BME280;45797;47.466;9.486;2023-02-28T01:42:57;96038.59;;;3.32;59.89
37892;BME280;45797;47.466;9.486;2023-02-28T01:48:06;96038.69;;;3.29;59.74
37892;BME280;45797;47.466;9.486;2023-02-28T01:53:18;96036.88;;;3.31;59.77
37892;BME280;45797;47.466;9.486;2023-02-28T01:58:26;96030.84;;;3.32;60.29
37892;BME280;45797;47.466;9.486;2023-02-28T02:03:30;96030.84;;;3.32;60.17
37892;BME280;45797;47.466;9.486;2023-02-28T02:08:31;96031.84;;;3.28;59.97
37892;BME280;45797;47.466;9.486;2023-02-28T02:36:09;96024.50;;;3.18;60.33
37892;BME280;45797;47.466;9.486;2023-02-28T02:41:35;96019.53;;;3.13;59.97
37892;BME280;45797;47.466;9.486;2023-02-28T02:46:45;96020.31;;;3.15;60.61
37892;BME280;45797;47.466;9.486;2023-02-28T02:51:50;96032.97;;;3.21;60.32
37892;BME280;45797;47.466;9.486;2023-02-28T02:57:08;96027.81;;;3.21;59.93
37892;BME280;45797;47.466;9.486;2023-02-28T03:02:19;96025.75;;;3.29;59.56
37892;BME280;45797;47.466;9.486;2023-02-28T03:07:28;96018.91;;;3.28;60.19
37892;BME280;45797;47.466;9.486;2023-02-28T03:12:52;96016.53;;;3.22;60.09
37892;BME280;45797;47.466;9.486;2023-02-28T03:18:22;96025.53;;;3.13;60.03
37892;BME280;45797;47.466;9.486;2023-02-28T03:34:08;96038.91;;;3.25;60.19
37892;BME280;45797;47.466;9.486;2023-02-28T03:39:18;96040.50;;;3.27;60.00
37892;BME280;45797;47.466;9.486;2023-02-28T03:44:36;96031.06;;;3.26;59.51
37892;BME280;45797;47.466;9.486;2023-02-28T03:49:46;96043.09;;;3.27;60.40
37892;BME280;45797;47.466;9.486;2023-02-28T03:54:56;96048.63;;;3.18;60.49
37892;BME280;45797;47.466;9.486;2023-02-28T04:05:13;96055.91;;;3.08;60.28
37892;BME280;45797;47.466;9.486;2023-02-28T04:10:15;96053.63;;;3.01;60.71
37892;BME280;45797;47.466;9.486;2023-02-28T04:15:18;96060.03;;;2.91;60.45
37892;BME280;45797;47.466;9.486;2023-02-28T04:20:31;96053.47;;;2.82;60.71
37892;BME280;45797;47.466;9.486;2023-02-28T04:25:33;96063.53;;;2.90;61.12
37892;BME280;45797;47.466;9.486;2023-02-28T04:30:35;96066.00;;;2.93;60.42
37892;BME280;45797;47.466;9.486;2023-02-28T04:35:43;96073.03;;;2.89;60.67
37892;BME280;45797;47.466;9.486;2023-02-28T04:40:52;96068.91;;;2.83;60.60
37892;BME280;45797;47.466;9.486;2023-02-28T04:45:57;96071.22;;;2.91;60.67
37892;BME280;45797;47.466;9.486;2023-02-28T04:51:11;96064.44;;;2.89;60.45
37892;BME280;45797;47.466;9.486;2023-02-28T04:56:14;96068.69;;;2.90;60.72
37892;BME280;45797;47.466;9.486;2023-02-28T05:01:27;96081.00;;;2.83;60.33
37892;BME280;45797;47.466;9.486;2023-02-28T05:06:32;96075.81;;;2.84;60.36
37892;BME280;45797;47.466;9.486;2023-02-28T05:11:36;96081.84;;;2.83;60.33
37892;BME280;45797;47.466;9.486;2023-02-28T05:16:39;96088.03;;;2.79;60.51
37892;BME280;45797;47.466;9.486;2023-02-28T05:21:54;96085.72;;;2.72;60.87
37892;BME280;45797;47.466;9.486;2023-02-28T05:26:56;96088.16;;;2.76;60.36
37892;BME280;45797;47.466;9.486;2023-02-28T05:31:56;96087.47;;;2.71;60.94
37892;BME280;45797;47.466;9.486;2023-02-28T05:36:57;96088.25;;;2.73;60.47
37892;BME280;45797;47.466;9.486;2023-02-28T05:41:58;96090.84;;;2.73;60.65
37892;BME280;45797;47.466;9.486;2023-02-28T05:46:58;96094.19;;;2.77;60.48
37892;BME280;45797;47.466;9.486;2023-02-28T05:52:09;96096.81;;;2.75;60.40
37892;BME280;45797;47.466;9.486;2023-02-28T05:57:10;96101.81;;;2.80;60.49
37892;BME280;45797;47.466;9.486;2023-02-28T06:02:16;96113.91;;;2.79;60.30
37892;BME280;45797;47.466;9.486;2023-02-28T06:07:18;96108.94;;;2.73;60.57
37892;BME280;45797;47.466;9.486;2023-02-28T06:12:19;96102.09;;;2.72;60.81
37892;BME280;45797;47.466;9.486;2023-02-28T06:17:22;96118.94;;;2.82;60.25
37892;BME280;45797;47.466;9.486;2023-02-28T06:22:43;96121.78;;;2.76;60.52
37892;BME280;45797;47.466;9.486;2023-02-28T06:27:43;96132.72;;;2.83;60.20
37892;BME280;45797;47.466;9.486;2023-02-28T06:32:53;96134.38;;;2.85;59.88
37892;BME280;45797;47.466;9.486;2023-02-28T06:37:54;96144.47;;;2.92;60.09
37892;BME280;45797;47.466;9.486;2023-02-28T06:42:59;96138.13;;;3.00;59.93
37892;BME280;45797;47.466;9.486;2023-02-28T06:48:01;96151.75;;;3.05;60.28
37892;BME280;45797;47.466;9.486;2023-02-28T06:53:04;96153.78;;;2.97;59.92
37892;BME280;45797;47.466;9.486;2023-02-28T06:58:11;96163.81;;;2.81;60.48
37892;BME280;45797;47.466;9.486;2023-02-28T07:03:14;96159.50;;;2.82;59.84
37892;BME280;45797;47.466;9.486;2023-02-28T07:08:16;96170.06;;;2.76;60.59
37892;BME280;45797;47.466;9.486;2023-02-28T07:13:32;96175.88;;;2.57;60.35
37892;BME280;45797;47.466;9.486;2023-02-28T07:18:32;96186.28;;;2.56;60.87
37892;BME280;45797;47.466;9.486;2023-02-28T07:23:42;96185.78;;;2.45;60.69
37892;BME280;45797;47.466;9.486;2023-02-28T07:28:43;96185.47;;;2.54;60.86
37892;BME280;45797;47.466;9.486;2023-02-28T07:33:52;96190.94;;;2.45;60.54
37892;BME280;45797;47.466;9.486;2023-02-28T07:38:53;96208.13;;;2.46;60.97
37892;BME280;45797;47.466;9.486;2023-02-28T07:43:55;96191.94;;;2.41;61.10
37892;BME280;45797;47.466;9.486;2023-02-28T07:49:01;96204.69;;;2.47;60.62
37892;BME280;45797;47.466;9.486;2023-02-28T07:54:03;96212.91;;;2.58;60.28
37892;BME280;45797;47.466;9.486;2023-02-28T07:59:05;96207.44;;;2.67;60.28
37892;BME280;45797;47.466;9.486;2023-02-28T08:04:09;96211.97;;;2.61;60.59
37892;BME280;45797;47.466;9.486;2023-02-28T08:09:22;96210.31;;;2.58;60.38
37892;BME280;45797;47.466;9.486;2023-02-28T08:14:22;96213.91;;;2.54;60.74
37892;BME280;45797;47.466;9.486;2023-02-28T08:19:23;96221.03;;;2.72;60.17
37892;BME280;45797;47.466;9.486;2023-02-28T08:24:26;96217.88;;;2.89;59.95
37892;BME280;45797;47.466;9.486;2023-02-28T08:29:29;96214.91;;;3.00;59.39
37892;BME280;45797;47.466;9.486;2023-02-28T08:34:39;96221.09;;;3.19;58.93
37892;BME280;45797;47.466;9.486;2023-02-28T08:40:05;96225.94;;;3.28;58.94
37892;BME280;45797;47.466;9.486;2023-02-28T08:45:11;96231.81;;;3.33;59.43
37892;BME280;45797;47.466;9.486;2023-02-28T08:50:12;96215.66;;;3.27;59.44
37892;BME280;45797;47.466;9.486;2023-02-28T08:55:19;96213.56;;;3.36;58.91
37892;BME280;45797;47.466;9.486;2023-02-28T09:00:21;96221.50;;;3.55;59.26
37892;BME280;45797;47.466;9.486;2023-02-28T09:05:24;96222.91;;;3.64;58.94
37892;BME280;45797;47.466;9.486;2023-02-28T09:10:25;96233.56;;;3.78;58.81
37892;BME280;45797;47.466;9.486;2023-02-28T09:15:26;96235.56;;;3.93;58.39
37892;BME280;45797;47.466;9.486;2023-02-28T09:20:29;96245.03;;;3.94;58.56
37892;BME280;45797;47.466;9.486;2023-02-28T09:25:31;96234.16;;;3.63;59.00
37892;BME280;45797;47.466;9.486;2023-02-28T09:30:31;96243.63;;;3.64;58.90
37892;BME280;45797;47.466;9.486;2023-02-28T09:35:35;96245.09;;;3.93;58.39
37892;BME280;45797;47.466;9.486;2023-02-28T09:40:50;96239.31;;;4.30;57.64
37892;BME280;45797;47.466;9.486;2023-02-28T09:51:55;96245.69;;;4.64;56.98
37892;BME280;45797;47.466;9.486;2023-02-28T09:57:15;96235.69;;;4.76;57.30
37892;BME280;45797;47.466;9.486;2023-02-28T10:08:02;96245.97;;;5.19;56.65
37892;BME280;45797;47.466;9.486;2023-02-28T10:18:21;96251.69;;;5.06;57.46
37892;BME280;45797;47.466;9.486;2023-02-28T10:28:26;96258.69;;;5.25;57.15
37892;BME280;45797;47.466;9.486;2023-02-28T10:33:34;96266.38;;;5.47;56.91
37892;BME280;45797;47.466;9.486;2023-02-28T10:38:39;96258.75;;;5.62;55.89
37892;BME280;45797;47.466;9.486;2023-02-28T10:43:44;96271.84;;;5.40;56.60
37892;BME280;45797;47.466;9.486;2023-02-28T10:48:50;96262.22;;;5.42;56.72
37892;BME280;45797;47.466;9.486;2023-02-28T10:53:57;96269.28;;;5.59;56.33
37892;BME280;45797;47.466;9.486;2023-02-28T10:59:29;96274.09;;;5.67;55.88
37892;BME280;45797;47.466;9.486;2023-02-28T11:09:40;96262.31;;;5.99;55.61
37892;BME280;45797;47.466;9.486;2023-02-28T11:14:52;96261.13;;;5.86;55.67
37892;BME280;45797;47.466;9.486;2023-02-28T11:20:02;96260.63;;;5.78;55.78
37892;BME280;45797;47.466;9.486;2023-02-28T11:25:16;96267.50;;;5.41;56.64
37892;BME280;45797;47.466;9.486;2023-02-28T11:30:59;96265.19;;;5.14;57.19
37892;BME280;45797;47.466;9.486;2023-02-28T11:36:08;96273.69;;;4.98;57.50
37892;BME280;45797;47.466;9.486;2023-02-28T11:46:49;96269.09;;;5.04;56.88
37892;BME280;45797;47.466;9.486;2023-02-28T12:30:14;96267.47;;;6.37;54.00
37892;BME280;45797;47.466;9.486;2023-02-28T12:35:33;96265.34;;;6.45;54.20
37892;BME280;45797;47.466;9.486;2023-02-28T12:40:59;96261.94;;;6.43;54.14
37892;BME280;45797;47.466;9.486;2023-02-28T12:46:15;96255.69;;;6.47;53.97
37892;BME280;45797;47.466;9.486;2023-02-28T12:51:20;96256.31;;;6.69;53.73
37892;BME280;45797;47.466;9.486;2023-02-28T12:56:36;96252.66;;;6.73;53.84
37892;BME280;45797;47.466;9.486;2023-02-28T13:07:36;96244.03;;;6.37;54.40
37892;BME280;45797;47.466;9.486;2023-02-28T13:12:48;96238.88;;;6.54;54.45
37892;BME280;45797;47.466;9.486;2023-02-28T13:17:51;96243.78;;;6.77;54.27
37892;BME280;45797;47.466;9.486;2023-02-28T13:22:54;96245.47;;;6.96;53.47
37892;BME280;45797;47.466;9.486;2023-02-28T13:27:56;96237.34;;;7.02;53.54
37892;BME280;45797;47.466;9.486;2023-02-28T13:33:33;96239.94;;;6.84;53.75
37892;BME280;45797;47.466;9.486;2023-02-28T13:38:39;96243.22;;;6.88;53.95
37892;BME280;45797;47.466;9.486;2023-02-28T13:44:08;96239.56;;;6.75;54.13
37892;BME280;45797;47.466;9.486;2023-02-28T14:10:46;96253.03;;;6.83;54.13
37892;BME280;45797;47.466;9.486;2023-02-28T14:15:58;96254.44;;;6.73;54.25
37892;BME280;45797;47.466;9.486;2023-02-28T14:37:15;96248.66;;;5.94;55.71
37892;BME280;45797;47.466;9.486;2023-02-28T14:42:34;96264.19;;;5.95;55.55
37892;BME280;45797;47.466;9.486;2023-02-28T14:47:35;96252.38;;;5.88;55.65
37892;BME280;45797;47.466;9.486;2023-02-28T14:52:37;96249.53;;;5.74;56.02
37892;BME280;45797;47.466;9.486;2023-02-28T14:57:54;96253.22;;;5.70;55.91
37892;BME280;45797;47.466;9.486;2023-02-28T15:03:32;96258.94;;;5.58;55.84
37892;BME280;45797;47.466;9.486;2023-02-28T15:08:34;96268.69;;;5.53;56.48
37892;BME280;45797;47.466;9.486;2023-02-28T15:13:48;96272.59;;;5.24;56.96
37892;BME280;45797;47.466;9.486;2023-02-28T15:19:02;96281.53;;;5.16;56.81
37892;BME280;45797;47.466;9.486;2023-02-28T15:24:05;96284.19;;;5.15;56.62
37892;BME280;45797;47.466;9.486;2023-02-28T15:29:15;96289.56;;;5.10;56.82
37892;BME280;45797;47.466;9.486;2023-02-28T15:34:26;96286.28;;;5.07;56.70
37892;BME280;45797;47.466;9.486;2023-02-28T15:39:41;96287.13;;;4.87;56.86
37892;BME280;45797;47.466;9.486;2023-02-28T15:44:46;96293.38;;;4.81;57.10
37892;BME280;45797;47.466;9.486;2023-02-28T15:49:50;96292.53;;;4.81;57.56
37892;BME280;45797;47.466;9.486;2023-02-28T15:54:52;96285.34;;;4.87;57.11
37892;BME280;45797;47.466;9.486;2023-02-28T16:00:03;96291.38;;;4.88;57.82
37892;BME280;45797;47.466;9.486;2023-02-28T16:05:20;96296.88;;;4.80;57.59
37892;BME280;45797;47.466;9.486;2023-02-28T16:10:29;96297.53;;;4.65;58.31
37892;BME280;45797;47.466;9.486;2023-02-28T16:15:35;96302.28;;;4.54;57.99
37892;BME280;45797;47.466;9.486;2023-02-28T16:20:46;96300.81;;;4.48;58.30
37892;BME280;45797;47.466;9.486;2023-02-28T16:25:48;96307.91;;;4.43;58.11
37892;BME280;45797;47.466;9.486;2023-02-28T16:30:53;96305.25;;;4.45;58.70
37892;BME280;45797;47.466;9.486;2023-02-28T16:35:55;96320.22;;;4.38;58.60
37892;BME280;45797;47.466;9.486;2023-02-28T16:41:05;96323.94;;;4.31;58.51
37892;BME280;45797;47.466;9.486;2023-02-28T16:46:10;96325.50;;;4.35;58.54
37892;BME280;45797;47.466;9.486;2023-02-28T16:51:15;96328.28;;;4.30;58.66
37892;BME280;45797;47.466;9.486;2023-02-28T16:56:24;96320.16;;;4.18;58.44
37892;BME280;45797;47.466;9.486;2023-02-28T17:01:26;96326.22;;;4.17;58.56
37892;BME280;45797;47.466;9.486;2023-02-28T17:06:28;96328.09;;;4.13;58.44
37892;BME280;45797;47.466;9.486;2023-02-28T17:11:38;96330.06;;;4.07;58.97
37892;BME280;45797;47.466;9.486;2023-02-28T17:16:41;96329.97;;;4.10;59.09
37892;BME280;45797;47.466;9.486;2023-02-28T17:21:46;96333.63;;;4.04;59.06
37892;BME280;45797;47.466;9.486;2023-02-28T17:26:48;96344.38;;;3.93;59.35
37892;BME280;45797;47.466;9.486;2023-02-28T17:31:51;96345.44;;;3.88;59.65
37892;BME280;45797;47.466;9.486;2023-02-28T17:36:51;96341.06;;;3.90;59.25
37892;BME280;45797;47.466;9.486;2023-02-28T17:42:07;96345.50;;;3.86;58.97
37892;BME280;45797;47.466;9.486;2023-02-28T17:47:11;96345.16;;;3.95;59.37
37892;BME280;45797;47.466;9.486;2023-02-28T17:52:17;96344.31;;;3.95;59.21
37892;BME280;45797;47.466;9.486;2023-02-28T17:57:18;96345.06;;;3.98;58.92
37892;BME280;45797;47.466;9.486;2023-02-28T18:02:20;96342.34;;;4.01;59.45
37892;BME280;45797;47.466;9.486;2023-02-28T18:07:26;96340.44;;;4.07;58.59
37892;BME280;45797;47.466;9.486;2023-02-28T18:12:27;96338.16;;;3.99;59.33
37892;BME280;45797;47.466;9.486;2023-02-28T18:17:38;96340.72;;;3.99;59.36
37892;BME280;45797;47.466;9.486;2023-02-28T18:22:42;96345.94;;;3.97;59.52
37892;BME280;45797;47.466;9.486;2023-02-28T18:27:45;96339.66;;;4.05;59.22
37892;BME280;45797;47.466;9.486;2023-02-28T18:32:58;96330.13;;;4.05;59.00
37892;BME280;45797;47.466;9.486;2023-02-28T18:38:13;96329.97;;;4.10;59.22
37892;BME280;45797;47.466;9.486;2023-02-28T18:43:21;96324.53;;;4.16;58.67
37892;BME280;45797;47.466;9.486;2023-02-28T18:48:22;96327.09;;;4.17;59.17
37892;BME280;45797;47.466;9.486;2023-02-28T18:53:30;96316.75;;;4.16;58.91
37892;BME280;45797;47.466;9.486;2023-02-28T18:58:41;96326.34;;;4.14;59.05
37892;BME280;45797;47.466;9.486;2023-02-28T19:03:43;96315.75;;;4.20;59.16
37892;BME280;45797;47.466;9.486;2023-02-28T19:08:45;96307.97;;;4.20;59.11
37892;BME280;45797;47.466;9.486;2023-02-28T19:13:45;96313.88;;;4.23;58.53
37892;BME280;45797;47.466;9.486;2023-02-28T19:18:55;96321.50;;;4.28;58.49
37892;BME280;45797;47.466;9.486;2023-02-28T19:24:02;96328.09;;;4.35;58.77
37892;BME280;45797;47.466;9.486;2023-02-28T19:29:21;96315.19;;;4.34;58.82
37892;BME280;45797;47.466;9.486;2023-02-28T19:34:25;96312.44;;;4.38;58.86
37892;BME280;45797;47.466;9.486;2023-02-28T19:39:26;96314.28;;;4.35;58.72
37892;BME280;45797;47.466;9.486;2023-02-28T19:44:26;96315.19;;;4.34;59.13
37892;BME280;45797;47.466;9.486;2023-02-28T19:49:27;96314.25;;;4.36;59.31
37892;BME280;45797;47.466;9.486;2023-02-28T19:54:27;96316.88;;;4.35;58.88
37892;BME280;45797;47.466;9.486;2023-02-28T19:59:30;96318.53;;;4.37;58.77
37892;BME280;45797;47.466;9.486;2023-02-28T20:04:31;96298.75;;;4.35;58.53
37892;BME280;45797;47.466;9.486;2023-02-28T20:09:35;96298.81;;;4.33;58.97
37892;BME280;45797;47.466;9.486;2023-02-28T20:14:45;96298.03;;;4.31;58.87
37892;BME280;45797;47.466;9.486;2023-02-28T20:19:47;96298.69;;;4.36;58.75
37892;BME280;45797;47.466;9.486;2023-02-28T20:24:50;96292.66;;;4.36;58.85
37892;BME280;45797;47.466;9.486;2023-02-28T20:29:54;96291.16;;;4.30;59.16
37892;BME280;45797;47.466;9.486;2023-02-28T20:34:58;96288.69;;;4.27;59.05
37892;BME280;45797;47.466;9.486;2023-02-28T20:40:05;96289.81;;;4.20;59.04
37892;BME280;45797;47.466;9.486;2023-02-28T20:45:07;96290.84;;;4.16;58.96
37892;BME280;45797;47.466;9.486;2023-02-28T20:50:08;96295.25;;;4.14;59.35
37892;BME280;45797;47.466;9.486;2023-02-28T20:55:10;96287.53;;;4.12;58.93
37892;BME280;45797;47.466;9.486;2023-02-28T21:00:13;96286.63;;;4.13;59.28
37892;BME280;45797;47.466;9.486;2023-02-28T21:05:19;96292.00;;;4.09;59.16
37892;BME280;45797;47.466;9.486;2023-02-28T21:10:19;96292.03;;;4.07;59.00
37892;BME280;45797;47.466;9.486;2023-02-28T21:15:36;96287.78;;;3.83;59.39
37892;BME280;45797;47.466;9.486;2023-02-28T21:20:37;96284.84;;;3.70;60.22
37892;BME280;45797;47.466;9.486;2023-02-28T21:25:39;96285.94;;;3.63;59.78
37892;BME280;45797;47.466;9.486;2023-02-28T21:30:40;96291.28;;;3.58;60.50
37892;BME280;45797;47.466;9.486;2023-02-28T21:35:51;96282.78;;;3.55;59.99
37892;BME280;45797;47.466;9.486;2023-02-28T21:41:05;96270.63;;;3.57;60.29
37892;BME280;45797;47.466;9.486;2023-02-28T21:46:09;96268.03;;;3.57;60.71
37892;BME280;45797;47.466;9.486;2023-02-28T21:51:13;96255.47;;;3.69;59.62
37892;BME280;45797;47.466;9.486;2023-02-28T21:56:17;96261.28;;;3.76;60.17
37892;BME280;45797;47.466;9.486;2023-02-28T22:01:21;96256.66;;;3.84;60.05
37892;BME280;45797;47.466;9.486;2023-02-28T22:06:25;96269.94;;;3.98;59.89
37892;BME280;45797;47.466;9.486;2023-02-28T22:11:26;96263.72;;;4.03;59.89
37892;BME280;45797;47.466;9.486;2023-02-28T22:16:32;96266.19;;;4.06;59.75
37892;BME280;45797;47.466;9.486;2023-02-28T22:21:35;96260.69;;;4.13;59.86
37892;BME280;45797;47.466;9.486;2023-02-28T22:26:36;96256.28;;;4.15;59.50
37892;BME280;45797;47.466;9.486;2023-02-28T22:31:36;96262.31;;;4.16;60.02
37892;BME280;45797;47.466;9.486;2023-02-28T22:36:48;96269.31;;;4.14;59.72
37892;BME280;45797;47.466;9.486;2023-02-28T22:41:53;96264.88;;;4.17;59.53
37892;BME280;45797;47.466;9.486;2023-02-28T22:46:54;96269.19;;;4.17;59.41
37892;BME280;45797;47.466;9.486;2023-02-28T22:51:54;96265.72;;;4.18;60.03
37892;BME280;45797;47.466;9.486;2023-02-28T22:56:54;96258.72;;;4.20;59.76
37892;BME280;45797;47.466;9.486;2023-02-28T23:01:56;96265.59;;;4.21;59.83
37892;BME280;45797;47.466;9.486;2023-02-28T23:06:57;96256.44;;;4.12;59.97
37892;BME280;45797;47.466;9.486;2023-02-28T23:11:57;96266.78;;;4.12;59.98
37892;BME280;45797;47.466;9.486;2023-02-28T23:16:57;96264.91;;;4.16;60.24
37892;BME280;45797;47.466;9.486;2023-02-28T23:22:13;96266.66;;;4.15;59.78
37892;BME280;45797;47.466;9.486;2023-02-28T23:27:15;96273.50;;;4.18;59.96
37892;BME280;45797;47.466;9.486;2023-02-28T23:32:23;96267.50;;;4.16;60.25
37892;BME280;45797;47.466;9.486;2023-02-28T23:37:24;96261.41;;;4.17;60.10
37892;BME280;45797;47.466;9.486;2023-02-28T23:42:24;96259.56;;;4.20;59.95
37892;BME280;45797;47.466;9.486;2023-02-28T23:47:26;96256.78;;;4.25;59.87
37892;BME280;45797;47.466;9.486;2023-02-28T23:52:26;96249.84;;;4.25;59.88
37892;BME280;45797;47.466;9.486;2023-02-28T23:57:28;96242.81;;;4.29;60.03
